Main page
METAR-TAF:

METAR-TAF

Airports :

Base de Almagro

Almagro, Spain

latitude: 38-57-11N, longitude: 3-44-29W, elevation: 629 m

Current weather observation

The report was made 6 hours and 59 minutes ago, at 22:00 UTC
Calm wind
Temperature 0°C
Humidity 86%
Pressure 1020 hPa
Visibility 10 km or more
no clouds below 1500 m and no cumulonimbus

METAR: LEAO 152200Z 00000KT CAVOK 00/M02 Q1020

Time: 05:59 (04:59 UTC)

Forecast

The report was made 11 hours and 59 minutes ago, at 17:00 UTC
Forecast valid from 15 at 18 UTC to 16 at 03 UTC
Wind 1 kt from variable directions
Visibility 10 km or more
no clouds below 1500 m and no cumulonimbus

TAF: LEAO 151700Z 1518/1603 VRB01KT CAVOK

Weather observations and forecasts of more than 4000 airports (METAR and TAF reports).

The available stations are represented by yellow and red dots on the map.

Hover mouse over dot to see the name of the station.

Then click to see weather observations and forecasts.

To change the map : click on the green buttons with a black cross to zoom in, on the green button with a dash to zoom out, or on the green arrows for adjacent maps.


METAR-TAF: